sensor_id;sensor_type;location;lat;lon;timestamp;P1;durP1;ratioP1;P2;durP2;ratioP2
65799;SDS011;52544;48.116;11.660;2022-08-19T00:01:29;5.03;;;3.75;;
65799;SDS011;52544;48.116;11.660;2022-08-19T00:03:56;5.85;;;4.20;;
65799;SDS011;52544;48.116;11.660;2022-08-19T00:06:22;5.20;;;3.80;;
65799;SDS011;52544;48.116;11.660;2022-08-19T00:08:48;5.95;;;4.15;;
65799;SDS011;52544;48.116;11.660;2022-08-19T00:11:13;6.43;;;4.15;;
65799;SDS011;52544;48.116;11.660;2022-08-19T00:13:39;6.30;;;4.53;;
65799;SDS011;52544;48.116;11.660;2022-08-19T00:16:05;8.25;;;4.00;;
65799;SDS011;52544;48.116;11.660;2022-08-19T00:18:31;5.03;;;3.90;;
65799;SDS011;52544;48.116;11.660;2022-08-19T00:20:57;8.13;;;4.13;;
65799;SDS011;52544;48.116;11.660;2022-08-19T00:23:24;5.70;;;4.05;;
65799;SDS011;52544;48.116;11.660;2022-08-19T00:25:50;5.57;;;3.63;;
65799;SDS011;52544;48.116;11.660;2022-08-19T00:28:16;8.27;;;4.22;;
65799;SDS011;52544;48.116;11.660;2022-08-19T00:30:42;5.65;;;3.90;;
65799;SDS011;52544;48.116;11.660;2022-08-19T00:33:07;5.72;;;4.15;;
65799;SDS011;52544;48.116;11.660;2022-08-19T00:35:33;5.53;;;4.00;;
65799;SDS011;52544;48.116;11.660;2022-08-19T00:37:59;9.27;;;5.00;;
65799;SDS011;52544;48.116;11.660;2022-08-19T00:40:25;8.38;;;4.50;;
65799;SDS011;52544;48.116;11.660;2022-08-19T00:42:50;5.10;;;3.83;;
65799;SDS011;52544;48.116;11.660;2022-08-19T00:45:20;7.72;;;4.38;;
65799;SDS011;52544;48.116;11.660;2022-08-19T00:47:47;10.02;;;5.32;;
65799;SDS011;52544;48.116;11.660;2022-08-19T00:50:13;8.23;;;5.30;;
65799;SDS011;52544;48.116;11.660;2022-08-19T00:52:42;6.40;;;4.40;;
65799;SDS011;52544;48.116;11.660;2022-08-19T00:55:12;6.85;;;4.78;;
65799;SDS011;52544;48.116;11.660;2022-08-19T00:57:42;8.55;;;5.22;;
65799;SDS011;52544;48.116;11.660;2022-08-19T01:00:12;6.85;;;4.50;;
65799;SDS011;52544;48.116;11.660;2022-08-19T01:02:41;8.90;;;5.13;;
65799;SDS011;52544;48.116;11.660;2022-08-19T01:05:08;8.30;;;5.65;;
65799;SDS011;52544;48.116;11.660;2022-08-19T01:07:37;6.53;;;5.07;;
65799;SDS011;52544;48.116;11.660;2022-08-19T01:10:08;7.93;;;5.40;;
65799;SDS011;52544;48.116;11.660;2022-08-19T01:12:36;9.05;;;5.88;;
65799;SDS011;52544;48.116;11.660;2022-08-19T01:15:02;8.25;;;5.40;;
65799;SDS011;52544;48.116;11.660;2022-08-19T01:17:28;10.20;;;5.90;;
65799;SDS011;52544;48.116;11.660;2022-08-19T01:19:54;9.90;;;6.10;;
65799;SDS011;52544;48.116;11.660;2022-08-19T01:24:48;7.65;;;5.80;;
65799;SDS011;52544;48.116;11.660;2022-08-19T01:27:14;9.85;;;6.53;;
65799;SDS011;52544;48.116;11.660;2022-08-19T01:29:41;9.35;;;6.05;;
65799;SDS011;52544;48.116;11.660;2022-08-19T01:32:08;7.47;;;5.75;;
65799;SDS011;52544;48.116;11.660;2022-08-19T01:34:37;8.40;;;6.00;;
65799;SDS011;52544;48.116;11.660;2022-08-19T01:37:09;11.45;;;6.25;;
65799;SDS011;52544;48.116;11.660;2022-08-19T01:39:36;10.40;;;6.18;;
65799;SDS011;52544;48.116;11.660;2022-08-19T01:42:04;7.95;;;5.45;;
65799;SDS011;52544;48.116;11.660;2022-08-19T01:44:32;9.77;;;5.70;;
65799;SDS011;52544;48.116;11.660;2022-08-19T01:46:58;7.88;;;5.40;;
65799;SDS011;52544;48.116;11.660;2022-08-19T01:49:24;8.65;;;5.35;;
65799;SDS011;52544;48.116;11.660;2022-08-19T01:51:51;8.63;;;5.60;;
65799;SDS011;52544;48.116;11.660;2022-08-19T01:54:19;9.15;;;5.63;;
65799;SDS011;52544;48.116;11.660;2022-08-19T01:56:46;6.88;;;4.65;;
65799;SDS011;52544;48.116;11.660;2022-08-19T01:59:16;7.97;;;5.05;;
65799;SDS011;52544;48.116;11.660;2022-08-19T02:01:43;8.43;;;5.32;;
65799;SDS011;52544;48.116;11.660;2022-08-19T02:04:09;6.82;;;4.63;;
65799;SDS011;52544;48.116;11.660;2022-08-19T02:06:35;7.22;;;4.53;;
65799;SDS011;52544;48.116;11.660;2022-08-19T02:09:00;8.48;;;5.50;;
65799;SDS011;52544;48.116;11.660;2022-08-19T02:11:28;11.02;;;5.57;;
65799;SDS011;52544;48.116;11.660;2022-08-19T02:13:59;7.80;;;5.05;;
65799;SDS011;52544;48.116;11.660;2022-08-19T02:16:27;7.45;;;4.68;;
65799;SDS011;52544;48.116;11.660;2022-08-19T02:18:53;6.93;;;4.60;;
65799;SDS011;52544;48.116;11.660;2022-08-19T02:21:19;6.88;;;4.78;;
65799;SDS011;52544;48.116;11.660;2022-08-19T02:23:47;7.97;;;4.80;;
65799;SDS011;52544;48.116;11.660;2022-08-19T02:26:14;7.25;;;4.45;;
65799;SDS011;52544;48.116;11.660;2022-08-19T02:28:40;7.88;;;4.45;;
65799;SDS011;52544;48.116;11.660;2022-08-19T02:31:10;5.82;;;4.28;;
65799;SDS011;52544;48.116;11.660;2022-08-19T02:33:37;6.82;;;4.57;;
65799;SDS011;52544;48.116;11.660;2022-08-19T02:36:03;6.32;;;4.15;;
65799;SDS011;52544;48.116;11.660;2022-08-19T02:38:30;5.88;;;4.35;;
65799;SDS011;52544;48.116;11.660;2022-08-19T02:43:23;7.15;;;4.38;;
65799;SDS011;52544;48.116;11.660;2022-08-19T02:45:49;5.10;;;3.72;;
65799;SDS011;52544;48.116;11.660;2022-08-19T02:48:17;5.60;;;4.20;;
65799;SDS011;52544;48.116;11.660;2022-08-19T02:50:43;5.78;;;3.85;;
65799;SDS011;52544;48.116;11.660;2022-08-19T02:53:10;7.70;;;4.13;;
65799;SDS011;52544;48.116;11.660;2022-08-19T02:55:36;6.38;;;4.72;;
65799;SDS011;52544;48.116;11.660;2022-08-19T02:58:08;6.63;;;4.30;;
65799;SDS011;52544;48.116;11.660;2022-08-19T03:00:33;6.38;;;4.20;;
65799;SDS011;52544;48.116;11.660;2022-08-19T03:02:59;6.22;;;4.18;;
65799;SDS011;52544;48.116;11.660;2022-08-19T03:05:25;8.35;;;5.32;;
65799;SDS011;52544;48.116;11.660;2022-08-19T03:07:52;7.03;;;5.00;;
65799;SDS011;52544;48.116;11.660;2022-08-19T03:10:17;6.93;;;4.75;;
65799;SDS011;52544;48.116;11.660;2022-08-19T03:12:43;7.03;;;4.47;;
65799;SDS011;52544;48.116;11.660;2022-08-19T03:15:10;6.32;;;3.90;;
65799;SDS011;52544;48.116;11.660;2022-08-19T03:17:35;5.95;;;4.25;;
65799;SDS011;52544;48.116;11.660;2022-08-19T03:20:01;6.03;;;4.35;;
65799;SDS011;52544;48.116;11.660;2022-08-19T03:22:28;9.45;;;4.80;;
65799;SDS011;52544;48.116;11.660;2022-08-19T03:24:55;5.72;;;4.18;;
65799;SDS011;52544;48.116;11.660;2022-08-19T03:27:20;7.72;;;4.97;;
65799;SDS011;52544;48.116;11.660;2022-08-19T03:29:46;6.68;;;4.63;;
65799;SDS011;52544;48.116;11.660;2022-08-19T03:32:11;6.95;;;4.65;;
65799;SDS011;52544;48.116;11.660;2022-08-19T03:34:37;7.63;;;4.82;;
65799;SDS011;52544;48.116;11.660;2022-08-19T03:37:05;7.93;;;5.25;;
65799;SDS011;52544;48.116;11.660;2022-08-19T03:39:33;9.50;;;6.10;;
65799;SDS011;52544;48.116;11.660;2022-08-19T03:42:00;8.40;;;4.88;;
65799;SDS011;52544;48.116;11.660;2022-08-19T03:44:28;7.85;;;4.85;;
65799;SDS011;52544;48.116;11.660;2022-08-19T03:46:56;10.30;;;5.18;;
65799;SDS011;52544;48.116;11.660;2022-08-19T03:49:23;7.15;;;5.00;;
65799;SDS011;52544;48.116;11.660;2022-08-19T03:51:51;10.50;;;4.93;;
65799;SDS011;52544;48.116;11.660;2022-08-19T03:54:19;6.72;;;4.70;;
65799;SDS011;52544;48.116;11.660;2022-08-19T03:56:46;7.03;;;4.60;;
65799;SDS011;52544;48.116;11.660;2022-08-19T03:59:15;8.25;;;5.35;;
65799;SDS011;52544;48.116;11.660;2022-08-19T04:01:44;7.43;;;5.03;;
65799;SDS011;52544;48.116;11.660;2022-08-19T04:04:10;12.07;;;5.30;;
65799;SDS011;52544;48.116;11.660;2022-08-19T04:06:37;7.10;;;4.85;;
65799;SDS011;52544;48.116;11.660;2022-08-19T04:09:04;9.90;;;4.57;;
65799;SDS011;52544;48.116;11.660;2022-08-19T04:11:33;7.78;;;4.80;;
65799;SDS011;52544;48.116;11.660;2022-08-19T04:14:00;7.82;;;4.65;;
65799;SDS011;52544;48.116;11.660;2022-08-19T04:16:26;6.35;;;4.40;;
65799;SDS011;52544;48.116;11.660;2022-08-19T04:18:54;6.43;;;4.40;;
65799;SDS011;52544;48.116;11.660;2022-08-19T04:21:22;6.88;;;4.55;;
65799;SDS011;52544;48.116;11.660;2022-08-19T04:23:49;6.25;;;4.28;;
65799;SDS011;52544;48.116;11.660;2022-08-19T04:26:16;5.05;;;3.88;;
65799;SDS011;52544;48.116;11.660;2022-08-19T04:28:44;9.30;;;5.10;;
65799;SDS011;52544;48.116;11.660;2022-08-19T04:31:14;9.57;;;6.28;;
65799;SDS011;52544;48.116;11.660;2022-08-19T04:33:41;10.18;;;4.93;;
65799;SDS011;52544;48.116;11.660;2022-08-19T04:36:06;7.70;;;4.80;;
65799;SDS011;52544;48.116;11.660;2022-08-19T04:38:33;7.50;;;4.97;;
65799;SDS011;52544;48.116;11.660;2022-08-19T04:40:58;6.80;;;4.35;;
65799;SDS011;52544;48.116;11.660;2022-08-19T04:43:43;6.55;;;4.35;;
65799;SDS011;52544;48.116;11.660;2022-08-19T04:46:13;6.43;;;4.65;;
65799;SDS011;52544;48.116;11.660;2022-08-19T04:48:39;6.82;;;4.35;;
65799;SDS011;52544;48.116;11.660;2022-08-19T04:51:06;7.38;;;5.03;;
65799;SDS011;52544;48.116;11.660;2022-08-19T04:53:34;6.72;;;4.50;;
65799;SDS011;52544;48.116;11.660;2022-08-19T04:56:04;6.70;;;4.40;;
65799;SDS011;52544;48.116;11.660;2022-08-19T04:58:32;6.30;;;4.38;;
65799;SDS011;52544;48.116;11.660;2022-08-19T05:00:58;5.95;;;4.43;;
65799;SDS011;52544;48.116;11.660;2022-08-19T05:03:27;5.82;;;4.20;;
65799;SDS011;52544;48.116;11.660;2022-08-19T05:05:58;12.55;;;4.57;;
65799;SDS011;52544;48.116;11.660;2022-08-19T05:08:23;7.07;;;4.60;;
65799;SDS011;52544;48.116;11.660;2022-08-19T05:10:49;6.32;;;4.95;;
65799;SDS011;52544;48.116;11.660;2022-08-19T05:13:16;6.32;;;4.97;;
65799;SDS011;52544;48.116;11.660;2022-08-19T05:15:44;8.13;;;4.55;;
65799;SDS011;52544;48.116;11.660;2022-08-19T05:18:19;7.20;;;4.90;;
65799;SDS011;52544;48.116;11.660;2022-08-19T05:21:07;9.45;;;5.40;;
65799;SDS011;52544;48.116;11.660;2022-08-19T05:23:53;7.72;;;5.28;;
65799;SDS011;52544;48.116;11.660;2022-08-19T05:26:18;8.60;;;4.72;;
65799;SDS011;52544;48.116;11.660;2022-08-19T05:28:43;9.75;;;4.45;;
65799;SDS011;52544;48.116;11.660;2022-08-19T05:31:09;6.82;;;4.40;;
65799;SDS011;52544;48.116;11.660;2022-08-19T05:33:34;6.80;;;5.05;;
65799;SDS011;52544;48.116;11.660;2022-08-19T05:36:01;6.82;;;4.47;;
65799;SDS011;52544;48.116;11.660;2022-08-19T05:38:27;5.72;;;4.15;;
65799;SDS011;52544;48.116;11.660;2022-08-19T05:40:55;6.93;;;4.13;;
65799;SDS011;52544;48.116;11.660;2022-08-19T05:43:21;6.68;;;4.50;;
65799;SDS011;52544;48.116;11.660;2022-08-19T05:45:46;9.77;;;4.80;;
65799;SDS011;52544;48.116;11.660;2022-08-19T05:48:12;7.88;;;4.75;;
65799;SDS011;52544;48.116;11.660;2022-08-19T05:50:38;7.22;;;4.60;;
65799;SDS011;52544;48.116;11.660;2022-08-19T05:53:05;7.90;;;4.78;;
65799;SDS011;52544;48.116;11.660;2022-08-19T05:55:31;7.90;;;4.88;;
65799;SDS011;52544;48.116;11.660;2022-08-19T05:57:57;6.18;;;4.40;;
65799;SDS011;52544;48.116;11.660;2022-08-19T06:00:22;9.02;;;5.93;;
65799;SDS011;52544;48.116;11.660;2022-08-19T06:02:48;7.93;;;5.10;;
65799;SDS011;52544;48.116;11.660;2022-08-19T06:05:14;7.60;;;5.47;;
65799;SDS011;52544;48.116;11.660;2022-08-19T06:07:40;8.00;;;5.10;;
65799;SDS011;52544;48.116;11.660;2022-08-19T06:10:06;8.38;;;5.07;;
65799;SDS011;52544;48.116;11.660;2022-08-19T06:12:34;9.20;;;5.10;;
65799;SDS011;52544;48.116;11.660;2022-08-19T06:15:01;8.13;;;5.43;;
65799;SDS011;52544;48.116;11.660;2022-08-19T06:17:29;7.03;;;5.25;;
65799;SDS011;52544;48.116;11.660;2022-08-19T06:19:55;9.32;;;5.70;;
65799;SDS011;52544;48.116;11.660;2022-08-19T06:22:21;11.68;;;6.70;;
65799;SDS011;52544;48.116;11.660;2022-08-19T06:24:46;10.95;;;6.25;;
65799;SDS011;52544;48.116;11.660;2022-08-19T06:27:12;12.13;;;5.90;;
65799;SDS011;52544;48.116;11.660;2022-08-19T06:29:37;9.68;;;6.18;;
65799;SDS011;52544;48.116;11.660;2022-08-19T06:32:03;9.00;;;5.47;;
65799;SDS011;52544;48.116;11.660;2022-08-19T06:34:29;11.10;;;6.32;;
65799;SDS011;52544;48.116;11.660;2022-08-19T06:36:57;14.43;;;8.10;;
65799;SDS011;52544;48.116;11.660;2022-08-19T06:39:26;11.77;;;7.40;;
65799;SDS011;52544;48.116;11.660;2022-08-19T06:41:55;13.43;;;8.02;;
65799;SDS011;52544;48.116;11.660;2022-08-19T06:44:23;14.00;;;6.93;;
65799;SDS011;52544;48.116;11.660;2022-08-19T06:46:51;13.07;;;7.20;;
65799;SDS011;52544;48.116;11.660;2022-08-19T06:49:17;13.15;;;7.55;;
65799;SDS011;52544;48.116;11.660;2022-08-19T06:51:43;12.20;;;7.38;;
65799;SDS011;52544;48.116;11.660;2022-08-19T06:54:10;14.18;;;7.93;;
65799;SDS011;52544;48.116;11.660;2022-08-19T06:56:36;10.73;;;7.15;;
65799;SDS011;52544;48.116;11.660;2022-08-19T06:59:06;12.85;;;7.03;;
65799;SDS011;52544;48.116;11.660;2022-08-19T07:01:40;10.57;;;7.25;;
65799;SDS011;52544;48.116;11.660;2022-08-19T07:04:15;11.73;;;8.10;;
65799;SDS011;52544;48.116;11.660;2022-08-19T07:06:48;23.10;;;11.98;;
65799;SDS011;52544;48.116;11.660;2022-08-19T07:09:15;13.70;;;8.93;;
65799;SDS011;52544;48.116;11.660;2022-08-19T07:11:46;14.13;;;8.40;;
65799;SDS011;52544;48.116;11.660;2022-08-19T07:14:14;14.10;;;9.23;;
65799;SDS011;52544;48.116;11.660;2022-08-19T07:16:43;16.92;;;9.52;;
65799;SDS011;52544;48.116;11.660;2022-08-19T07:19:12;20.38;;;10.45;;
65799;SDS011;52544;48.116;11.660;2022-08-19T07:21:38;17.85;;;10.52;;
65799;SDS011;52544;48.116;11.660;2022-08-19T07:24:04;17.05;;;10.98;;
65799;SDS011;52544;48.116;11.660;2022-08-19T07:26:31;20.13;;;11.20;;
65799;SDS011;52544;48.116;11.660;2022-08-19T07:29:02;17.33;;;11.10;;
65799;SDS011;52544;48.116;11.660;2022-08-19T07:31:28;19.42;;;11.30;;
65799;SDS011;52544;48.116;11.660;2022-08-19T07:33:54;17.75;;;11.40;;
65799;SDS011;52544;48.116;11.660;2022-08-19T07:36:23;18.25;;;11.52;;
65799;SDS011;52544;48.116;11.660;2022-08-19T07:38:51;17.25;;;11.02;;
65799;SDS011;52544;48.116;11.660;2022-08-19T07:41:20;18.83;;;11.88;;
65799;SDS011;52544;48.116;11.660;2022-08-19T07:43:48;19.33;;;11.93;;
65799;SDS011;52544;48.116;11.660;2022-08-19T07:46:14;19.88;;;11.57;;
65799;SDS011;52544;48.116;11.660;2022-08-19T07:48:41;22.13;;;12.77;;
65799;SDS011;52544;48.116;11.660;2022-08-19T07:51:12;18.73;;;11.93;;
65799;SDS011;52544;48.116;11.660;2022-08-19T07:53:38;20.30;;;12.15;;
65799;SDS011;52544;48.116;11.660;2022-08-19T07:56:04;17.10;;;9.68;;
65799;SDS011;52544;48.116;11.660;2022-08-19T07:58:31;16.88;;;10.52;;
65799;SDS011;52544;48.116;11.660;2022-08-19T08:00:59;19.33;;;9.68;;
65799;SDS011;52544;48.116;11.660;2022-08-19T08:03:25;18.15;;;9.95;;
65799;SDS011;52544;48.116;11.660;2022-08-19T08:06:12;19.27;;;12.80;;
65799;SDS011;52544;48.116;11.660;2022-08-19T08:09:00;24.75;;;12.90;;
65799;SDS011;52544;48.116;11.660;2022-08-19T08:11:46;19.08;;;12.52;;
65799;SDS011;52544;48.116;11.660;2022-08-19T08:14:20;21.45;;;11.05;;
65799;SDS011;52544;48.116;11.660;2022-08-19T08:16:49;18.13;;;11.15;;
65799;SDS011;52544;48.116;11.660;2022-08-19T08:19:17;17.88;;;10.57;;
65799;SDS011;52544;48.116;11.660;2022-08-19T08:21:47;20.65;;;9.95;;
65799;SDS011;52544;48.116;11.660;2022-08-19T08:24:14;17.33;;;10.07;;
65799;SDS011;52544;48.116;11.660;2022-08-19T08:26:39;17.65;;;10.82;;
65799;SDS011;52544;48.116;11.660;2022-08-19T08:29:06;20.65;;;10.90;;
65799;SDS011;52544;48.116;11.660;2022-08-19T08:31:34;18.38;;;10.40;;
65799;SDS011;52544;48.116;11.660;2022-08-19T08:33:59;23.10;;;12.13;;
65799;SDS011;52544;48.116;11.660;2022-08-19T08:36:24;17.60;;;9.70;;
65799;SDS011;52544;48.116;11.660;2022-08-19T08:38:50;16.58;;;10.02;;
65799;SDS011;52544;48.116;11.660;2022-08-19T08:41:25;17.70;;;10.52;;
65799;SDS011;52544;48.116;11.660;2022-08-19T08:43:59;18.52;;;11.40;;
65799;SDS011;52544;48.116;11.660;2022-08-19T08:51:36;21.67;;;10.35;;
65799;SDS011;52544;48.116;11.660;2022-08-19T08:54:07;17.30;;;9.30;;
65799;SDS011;52544;48.116;11.660;2022-08-19T08:56:37;16.20;;;10.35;;
65799;SDS011;52544;48.116;11.660;2022-08-19T08:59:05;19.35;;;10.90;;
65799;SDS011;52544;48.116;11.660;2022-08-19T09:01:35;15.00;;;8.95;;
65799;SDS011;52544;48.116;11.660;2022-08-19T09:04:05;20.48;;;11.70;;
65799;SDS011;52544;48.116;11.660;2022-08-19T09:06:36;17.40;;;9.90;;
65799;SDS011;52544;48.116;11.660;2022-08-19T09:09:40;21.13;;;11.88;;
65799;SDS011;52544;48.116;11.660;2022-08-19T09:12:23;15.38;;;9.85;;
65799;SDS011;52544;48.116;11.660;2022-08-19T09:15:03;21.08;;;9.98;;
65799;SDS011;52544;48.116;11.660;2022-08-19T09:17:31;20.52;;;9.93;;
65799;SDS011;52544;48.116;11.660;2022-08-19T09:22:39;20.92;;;11.27;;
65799;SDS011;52544;48.116;11.660;2022-08-19T09:25:09;15.80;;;10.05;;
65799;SDS011;52544;48.116;11.660;2022-08-19T09:27:36;21.63;;;11.00;;
65799;SDS011;52544;48.116;11.660;2022-08-19T09:30:03;14.57;;;9.63;;
65799;SDS011;52544;48.116;11.660;2022-08-19T09:32:31;16.83;;;9.77;;
65799;SDS011;52544;48.116;11.660;2022-08-19T09:34:57;14.07;;;8.98;;
65799;SDS011;52544;48.116;11.660;2022-08-19T09:37:23;16.98;;;10.27;;
65799;SDS011;52544;48.116;11.660;2022-08-19T09:39:49;14.70;;;9.13;;
65799;SDS011;52544;48.116;11.660;2022-08-19T09:42:15;18.23;;;9.82;;
65799;SDS011;52544;48.116;11.660;2022-08-19T09:44:41;17.08;;;10.75;;
65799;SDS011;52544;48.116;11.660;2022-08-19T09:47:08;16.58;;;10.10;;
65799;SDS011;52544;48.116;11.660;2022-08-19T09:49:35;16.27;;;11.45;;
65799;SDS011;52544;48.116;11.660;2022-08-19T09:52:00;20.70;;;12.32;;
65799;SDS011;52544;48.116;11.660;2022-08-19T09:54:26;19.25;;;11.77;;
65799;SDS011;52544;48.116;11.660;2022-08-19T09:56:52;18.25;;;10.82;;
65799;SDS011;52544;48.116;11.660;2022-08-19T09:59:18;18.13;;;9.85;;
65799;SDS011;52544;48.116;11.660;2022-08-19T10:01:44;18.20;;;10.13;;
65799;SDS011;52544;48.116;11.660;2022-08-19T10:04:09;15.23;;;9.60;;
65799;SDS011;52544;48.116;11.660;2022-08-19T10:06:35;16.10;;;9.80;;
65799;SDS011;52544;48.116;11.660;2022-08-19T10:09:05;17.55;;;9.43;;
65799;SDS011;52544;48.116;11.660;2022-08-19T10:11:35;15.73;;;9.20;;
65799;SDS011;52544;48.116;11.660;2022-08-19T10:14:03;17.77;;;8.98;;
65799;SDS011;52544;48.116;11.660;2022-08-19T10:16:30;12.20;;;8.45;;
65799;SDS011;52544;48.116;11.660;2022-08-19T10:18:57;13.93;;;8.55;;
65799;SDS011;52544;48.116;11.660;2022-08-19T10:21:24;13.35;;;8.43;;
65799;SDS011;52544;48.116;11.660;2022-08-19T10:24:00;12.57;;;8.45;;
65799;SDS011;52544;48.116;11.660;2022-08-19T10:26:35;10.93;;;7.68;;
65799;SDS011;52544;48.116;11.660;2022-08-19T10:29:04;14.40;;;8.50;;
65799;SDS011;52544;48.116;11.660;2022-08-19T10:31:31;12.02;;;7.68;;
65799;SDS011;52544;48.116;11.660;2022-08-19T10:33:58;13.07;;;8.52;;
65799;SDS011;52544;48.116;11.660;2022-08-19T10:36:26;16.48;;;8.98;;
65799;SDS011;52544;48.116;11.660;2022-08-19T10:38:57;16.92;;;10.35;;
65799;SDS011;52544;48.116;11.660;2022-08-19T10:41:34;13.88;;;8.57;;
65799;SDS011;52544;48.116;11.660;2022-08-19T10:44:02;14.40;;;8.90;;
65799;SDS011;52544;48.116;11.660;2022-08-19T10:46:30;13.35;;;8.80;;
65799;SDS011;52544;48.116;11.660;2022-08-19T10:48:57;16.23;;;9.10;;
65799;SDS011;52544;48.116;11.660;2022-08-19T10:51:24;13.25;;;7.65;;
65799;SDS011;52544;48.116;11.660;2022-08-19T10:54:07;12.52;;;7.88;;
65799;SDS011;52544;48.116;11.660;2022-08-19T10:56:33;13.25;;;8.02;;
65799;SDS011;52544;48.116;11.660;2022-08-19T10:59:24;13.32;;;8.27;;
65799;SDS011;52544;48.116;11.660;2022-08-19T11:01:53;16.85;;;8.02;;
65799;SDS011;52544;48.116;11.660;2022-08-19T11:04:23;13.38;;;7.53;;
65799;SDS011;52544;48.116;11.660;2022-08-19T11:06:49;12.30;;;7.28;;
65799;SDS011;52544;48.116;11.660;2022-08-19T11:09:16;12.55;;;7.90;;
65799;SDS011;52544;48.116;11.660;2022-08-19T11:11:43;12.15;;;7.07;;
65799;SDS011;52544;48.116;11.660;2022-08-19T11:14:10;10.07;;;7.13;;
65799;SDS011;52544;48.116;11.660;2022-08-19T11:16:37;11.68;;;7.45;;
65799;SDS011;52544;48.116;11.660;2022-08-19T11:19:04;11.25;;;6.82;;
65799;SDS011;52544;48.116;11.660;2022-08-19T11:21:33;12.43;;;7.95;;
65799;SDS011;52544;48.116;11.660;2022-08-19T11:24:01;12.43;;;7.47;;
65799;SDS011;52544;48.116;11.660;2022-08-19T11:26:32;11.07;;;7.07;;
65799;SDS011;52544;48.116;11.660;2022-08-19T11:28:59;10.63;;;6.80;;
65799;SDS011;52544;48.116;11.660;2022-08-19T11:31:26;10.55;;;6.53;;
65799;SDS011;52544;48.116;11.660;2022-08-19T11:34:00;12.38;;;6.60;;
65799;SDS011;52544;48.116;11.660;2022-08-19T11:36:28;10.48;;;6.10;;
65799;SDS011;52544;48.116;11.660;2022-08-19T11:38:54;8.75;;;5.32;;
65799;SDS011;52544;48.116;11.660;2022-08-19T11:41:21;9.75;;;6.20;;
65799;SDS011;52544;48.116;11.660;2022-08-19T11:43:48;8.45;;;5.47;;
65799;SDS011;52544;48.116;11.660;2022-08-19T11:46:16;7.85;;;5.40;;
65799;SDS011;52544;48.116;11.660;2022-08-19T11:48:42;9.00;;;6.25;;
65799;SDS011;52544;48.116;11.660;2022-08-19T11:51:09;10.20;;;6.10;;
65799;SDS011;52544;48.116;11.660;2022-08-19T11:53:37;9.70;;;6.60;;
65799;SDS011;52544;48.116;11.660;2022-08-19T11:56:03;9.70;;;6.28;;
65799;SDS011;52544;48.116;11.660;2022-08-19T11:58:30;9.45;;;5.60;;
65799;SDS011;52544;48.116;11.660;2022-08-19T12:00:56;12.77;;;7.75;;
65799;SDS011;52544;48.116;11.660;2022-08-19T12:03:21;12.00;;;7.20;;
65799;SDS011;52544;48.116;11.660;2022-08-19T12:05:47;9.95;;;6.15;;
65799;SDS011;52544;48.116;11.660;2022-08-19T12:08:13;7.55;;;4.75;;
65799;SDS011;52544;48.116;11.660;2022-08-19T12:10:40;5.95;;;4.45;;
65799;SDS011;52544;48.116;11.660;2022-08-19T12:13:07;6.75;;;4.30;;
65799;SDS011;52544;48.116;11.660;2022-08-19T12:15:37;6.25;;;4.72;;
65799;SDS011;52544;48.116;11.660;2022-08-19T12:18:05;6.05;;;4.38;;
65799;SDS011;52544;48.116;11.660;2022-08-19T12:20:31;6.50;;;4.40;;
65799;SDS011;52544;48.116;11.660;2022-08-19T12:22:59;6.22;;;4.13;;
65799;SDS011;52544;48.116;11.660;2022-08-19T12:25:25;5.53;;;4.35;;
65799;SDS011;52544;48.116;11.660;2022-08-19T12:27:50;5.63;;;3.95;;
65799;SDS011;52544;48.116;11.660;2022-08-19T12:30:16;3.22;;;2.60;;
65799;SDS011;52544;48.116;11.660;2022-08-19T12:32:42;4.30;;;3.13;;
65799;SDS011;52544;48.116;11.660;2022-08-19T12:35:08;2.53;;;1.85;;
65799;SDS011;52544;48.116;11.660;2022-08-19T12:37:36;1.65;;;1.55;;
65799;SDS011;52544;48.116;11.660;2022-08-19T12:40:02;2.30;;;2.10;;
65799;SDS011;52544;48.116;11.660;2022-08-19T12:42:28;1.63;;;1.50;;
65799;SDS011;52544;48.116;11.660;2022-08-19T12:44:55;1.67;;;1.35;;
65799;SDS011;52544;48.116;11.660;2022-08-19T12:47:21;2.70;;;1.45;;
65799;SDS011;52544;48.116;11.660;2022-08-19T12:49:47;1.45;;;1.33;;
65799;SDS011;52544;48.116;11.660;2022-08-19T12:52:14;2.10;;;1.60;;
65799;SDS011;52544;48.116;11.660;2022-08-19T12:54:40;2.90;;;2.08;;
65799;SDS011;52544;48.116;11.660;2022-08-19T12:57:06;1.30;;;1.20;;
65799;SDS011;52544;48.116;11.660;2022-08-19T12:59:33;1.20;;;1.10;;
65799;SDS011;52544;48.116;11.660;2022-08-19T13:02:01;1.25;;;1.15;;
65799;SDS011;52544;48.116;11.660;2022-08-19T13:04:27;1.73;;;1.20;;
65799;SDS011;52544;48.116;11.660;2022-08-19T13:06:52;2.55;;;1.20;;
65799;SDS011;52544;48.116;11.660;2022-08-19T13:09:18;2.35;;;1.17;;
65799;SDS011;52544;48.116;11.660;2022-08-19T13:11:43;1.63;;;1.27;;
65799;SDS011;52544;48.116;11.660;2022-08-19T13:14:09;1.92;;;1.40;;
65799;SDS011;52544;48.116;11.660;2022-08-19T13:16:36;1.30;;;1.20;;
65799;SDS011;52544;48.116;11.660;2022-08-19T13:19:03;1.58;;;1.48;;
65799;SDS011;52544;48.116;11.660;2022-08-19T13:21:30;1.50;;;1.40;;
65799;SDS011;52544;48.116;11.660;2022-08-19T13:23:55;2.00;;;1.20;;
65799;SDS011;52544;48.116;11.660;2022-08-19T13:26:21;1.92;;;1.40;;
65799;SDS011;52544;48.116;11.660;2022-08-19T13:28:47;4.07;;;2.25;;
65799;SDS011;52544;48.116;11.660;2022-08-19T13:31:32;4.10;;;1.90;;
65799;SDS011;52544;48.116;11.660;2022-08-19T13:34:19;2.17;;;1.80;;
65799;SDS011;52544;48.116;11.660;2022-08-19T13:36:52;2.78;;;1.60;;
65799;SDS011;52544;48.116;11.660;2022-08-19T13:39:18;2.78;;;1.67;;
65799;SDS011;52544;48.116;11.660;2022-08-19T13:41:45;1.77;;;1.67;;
65799;SDS011;52544;48.116;11.660;2022-08-19T13:44:15;2.17;;;1.73;;
65799;SDS011;52544;48.116;11.660;2022-08-19T13:46:43;2.05;;;1.85;;
65799;SDS011;52544;48.116;11.660;2022-08-19T13:49:10;2.17;;;1.50;;
65799;SDS011;52544;48.116;11.660;2022-08-19T13:51:38;1.27;;;1.17;;
65799;SDS011;52544;48.116;11.660;2022-08-19T13:54:07;1.73;;;1.48;;
65799;SDS011;52544;48.116;11.660;2022-08-19T13:56:33;2.35;;;1.50;;
65799;SDS011;52544;48.116;11.660;2022-08-19T13:59:00;1.67;;;1.42;;
65799;SDS011;52544;48.116;11.660;2022-08-19T14:01:25;2.38;;;1.40;;
65799;SDS011;52544;48.116;11.660;2022-08-19T14:03:51;2.15;;;1.60;;
65799;SDS011;52544;48.116;11.660;2022-08-19T14:06:17;1.85;;;1.65;;
65799;SDS011;52544;48.116;11.660;2022-08-19T14:08:44;3.20;;;1.63;;
65799;SDS011;52544;48.116;11.660;2022-08-19T14:11:09;2.13;;;1.60;;
65799;SDS011;52544;48.116;11.660;2022-08-19T14:13:35;1.90;;;1.70;;
65799;SDS011;52544;48.116;11.660;2022-08-19T14:16:01;1.95;;;1.75;;
65799;SDS011;52544;48.116;11.660;2022-08-19T14:18:32;2.05;;;1.85;;
65799;SDS011;52544;48.116;11.660;2022-08-19T14:20:57;3.00;;;2.10;;
65799;SDS011;52544;48.116;11.660;2022-08-19T14:23:22;4.35;;;2.00;;
65799;SDS011;52544;48.116;11.660;2022-08-19T14:25:48;3.25;;;2.03;;
65799;SDS011;52544;48.116;11.660;2022-08-19T14:28:13;2.78;;;2.30;;
65799;SDS011;52544;48.116;11.660;2022-08-19T14:30:39;3.05;;;2.22;;
65799;SDS011;52544;48.116;11.660;2022-08-19T14:33:04;4.07;;;2.67;;
65799;SDS011;52544;48.116;11.660;2022-08-19T14:35:32;4.85;;;2.15;;
65799;SDS011;52544;48.116;11.660;2022-08-19T14:37:59;2.60;;;2.20;;
65799;SDS011;52544;48.116;11.660;2022-08-19T14:40:26;3.60;;;2.75;;
65799;SDS011;52544;48.116;11.660;2022-08-19T14:42:54;3.05;;;2.65;;
65799;SDS011;52544;48.116;11.660;2022-08-19T14:45:25;5.38;;;2.53;;